sensor_id;sensor_type;location;lat;lon;timestamp;temperature;humidity
69335;SHT31;56477;52.742;15.242;2023-06-10T00:01:48;17.39;85.75
69335;SHT31;56477;52.742;15.242;2023-06-10T00:04:15;17.39;85.81
69335;SHT31;56477;52.742;15.242;2023-06-10T00:06:45;17.41;85.69
69335;SHT31;56477;52.742;15.242;2023-06-10T00:09:13;17.37;85.67
69335;SHT31;56477;52.742;15.242;2023-06-10T00:11:40;17.36;85.66
69335;SHT31;56477;52.742;15.242;2023-06-10T00:14:06;17.30;85.86
69335;SHT31;56477;52.742;15.242;2023-06-10T00:16:33;17.29;85.84
69335;SHT31;56477;52.742;15.242;2023-06-10T00:19:00;17.23;86.08
69335;SHT31;56477;52.742;15.242;2023-06-10T00:21:27;17.20;86.28
69335;SHT31;56477;52.742;15.242;2023-06-10T00:23:54;17.20;86.03
69335;SHT31;56477;52.742;15.242;2023-06-10T00:26:24;17.15;86.15
69335;SHT31;56477;52.742;15.242;2023-06-10T00:28:50;17.10;86.16
69335;SHT31;56477;52.742;15.242;2023-06-10T00:31:16;17.09;86.50
69335;SHT31;56477;52.742;15.242;2023-06-10T00:33:42;17.03;86.40
69335;SHT31;56477;52.742;15.242;2023-06-10T00:36:08;16.96;86.74
69335;SHT31;56477;52.742;15.242;2023-06-10T00:38:35;16.99;86.71
69335;SHT31;56477;52.742;15.242;2023-06-10T00:41:01;16.92;86.75
69335;SHT31;56477;52.742;15.242;2023-06-10T00:43:27;16.93;86.59
69335;SHT31;56477;52.742;15.242;2023-06-10T00:45:54;16.95;86.69
69335;SHT31;56477;52.742;15.242;2023-06-10T00:48:20;16.89;86.47
69335;SHT31;56477;52.742;15.242;2023-06-10T00:50:47;16.83;86.84
69335;SHT31;56477;52.742;15.242;2023-06-10T00:53:13;16.76;87.11
69335;SHT31;56477;52.742;15.242;2023-06-10T00:55:41;16.75;87.06
69335;SHT31;56477;52.742;15.242;2023-06-10T00:58:07;16.73;87.20
69335;SHT31;56477;52.742;15.242;2023-06-10T01:00:33;16.69;87.05
69335;SHT31;56477;52.742;15.242;2023-06-10T01:02:59;16.69;87.22
69335;SHT31;56477;52.742;15.242;2023-06-10T01:05:26;16.64;87.19
69335;SHT31;56477;52.742;15.242;2023-06-10T01:08:01;16.62;87.45
69335;SHT31;56477;52.742;15.242;2023-06-10T01:10:37;16.60;87.50
69335;SHT31;56477;52.742;15.242;2023-06-10T01:13:07;16.55;87.56
69335;SHT31;56477;52.742;15.242;2023-06-10T01:15:34;16.54;87.48
69335;SHT31;56477;52.742;15.242;2023-06-10T01:18:02;16.45;87.56
69335;SHT31;56477;52.742;15.242;2023-06-10T01:20:30;16.45;87.76
69335;SHT31;56477;52.742;15.242;2023-06-10T01:23:01;16.51;87.69
69335;SHT31;56477;52.742;15.242;2023-06-10T01:25:29;16.47;87.52
69335;SHT31;56477;52.742;15.242;2023-06-10T01:28:18;16.44;87.72
69335;SHT31;56477;52.742;15.242;2023-06-10T01:31:23;16.42;87.69
69335;SHT31;56477;52.742;15.242;2023-06-10T01:34:00;16.38;87.65
69335;SHT31;56477;52.742;15.242;2023-06-10T01:36:28;16.38;87.75
69335;SHT31;56477;52.742;15.242;2023-06-10T01:38:55;16.34;87.89
69335;SHT31;56477;52.742;15.242;2023-06-10T01:41:22;16.34;87.85
69335;SHT31;56477;52.742;15.242;2023-06-10T01:43:48;16.30;87.87
69335;SHT31;56477;52.742;15.242;2023-06-10T01:46:15;16.28;87.87
69335;SHT31;56477;52.742;15.242;2023-06-10T01:48:45;16.24;87.93
69335;SHT31;56477;52.742;15.242;2023-06-10T01:51:11;16.23;88.00
69335;SHT31;56477;52.742;15.242;2023-06-10T01:53:37;16.21;88.11
69335;SHT31;56477;52.742;15.242;2023-06-10T01:56:03;16.20;88.10
69335;SHT31;56477;52.742;15.242;2023-06-10T01:58:29;16.21;88.17
69335;SHT31;56477;52.742;15.242;2023-06-10T02:00:55;16.27;87.99
69335;SHT31;56477;52.742;15.242;2023-06-10T02:03:21;16.34;87.68
69335;SHT31;56477;52.742;15.242;2023-06-10T02:05:48;16.35;87.48
69335;SHT31;56477;52.742;15.242;2023-06-10T02:08:14;16.41;87.22
69335;SHT31;56477;52.742;15.242;2023-06-10T02:10:40;16.52;86.48
69335;SHT31;56477;52.742;15.242;2023-06-10T02:13:06;16.64;86.03
69335;SHT31;56477;52.742;15.242;2023-06-10T02:15:32;16.68;85.63
69335;SHT31;56477;52.742;15.242;2023-06-10T02:17:59;16.72;85.66
69335;SHT31;56477;52.742;15.242;2023-06-10T02:20:25;16.75;85.45
69335;SHT31;56477;52.742;15.242;2023-06-10T02:22:51;16.72;85.55
69335;SHT31;56477;52.742;15.242;2023-06-10T02:25:17;16.72;85.22
69335;SHT31;56477;52.742;15.242;2023-06-10T02:27:43;16.75;85.15
69335;SHT31;56477;52.742;15.242;2023-06-10T02:30:09;16.76;84.90
69335;SHT31;56477;52.742;15.242;2023-06-10T02:32:36;16.79;84.77
69335;SHT31;56477;52.742;15.242;2023-06-10T02:35:02;16.81;84.62
69335;SHT31;56477;52.742;15.242;2023-06-10T02:37:28;16.79;84.36
69335;SHT31;56477;52.742;15.242;2023-06-10T02:39:54;16.78;84.64
69335;SHT31;56477;52.742;15.242;2023-06-10T02:42:20;16.75;84.57
69335;SHT31;56477;52.742;15.242;2023-06-10T02:44:46;16.69;84.81
69335;SHT31;56477;52.742;15.242;2023-06-10T02:47:12;16.58;85.37
69335;SHT31;56477;52.742;15.242;2023-06-10T02:49:38;16.45;85.59
69335;SHT31;56477;52.742;15.242;2023-06-10T02:52:04;16.40;85.65
69335;SHT31;56477;52.742;15.242;2023-06-10T02:54:30;16.42;85.52
69335;SHT31;56477;52.742;15.242;2023-06-10T02:56:56;16.47;85.03
69335;SHT31;56477;52.742;15.242;2023-06-10T02:59:22;16.52;85.08
69335;SHT31;56477;52.742;15.242;2023-06-10T03:01:48;16.48;84.98
69335;SHT31;56477;52.742;15.242;2023-06-10T03:04:14;16.48;85.10
69335;SHT31;56477;52.742;15.242;2023-06-10T03:06:40;16.47;84.62
69335;SHT31;56477;52.742;15.242;2023-06-10T03:09:07;16.45;84.61
69335;SHT31;56477;52.742;15.242;2023-06-10T03:11:35;16.47;84.58
69335;SHT31;56477;52.742;15.242;2023-06-10T03:14:02;16.50;84.21
69335;SHT31;56477;52.742;15.242;2023-06-10T03:16:28;16.50;84.26
69335;SHT31;56477;52.742;15.242;2023-06-10T03:18:56;16.51;83.87
69335;SHT31;56477;52.742;15.242;2023-06-10T03:21:21;16.58;83.69
69335;SHT31;56477;52.742;15.242;2023-06-10T03:23:48;16.60;83.56
69335;SHT31;56477;52.742;15.242;2023-06-10T03:26:14;16.61;83.37
69335;SHT31;56477;52.742;15.242;2023-06-10T03:28:41;16.67;83.08
69335;SHT31;56477;52.742;15.242;2023-06-10T03:31:07;16.72;82.69
69335;SHT31;56477;52.742;15.242;2023-06-10T03:33:33;16.71;82.61
69335;SHT31;56477;52.742;15.242;2023-06-10T03:35:59;16.75;82.77
69335;SHT31;56477;52.742;15.242;2023-06-10T03:38:25;16.79;82.51
69335;SHT31;56477;52.742;15.242;2023-06-10T03:40:51;16.85;82.18
69335;SHT31;56477;52.742;15.242;2023-06-10T03:43:17;16.83;81.90
69335;SHT31;56477;52.742;15.242;2023-06-10T03:45:43;16.86;81.94
69335;SHT31;56477;52.742;15.242;2023-06-10T03:48:09;16.89;81.71
69335;SHT31;56477;52.742;15.242;2023-06-10T03:50:36;16.93;81.60
69335;SHT31;56477;52.742;15.242;2023-06-10T03:53:02;16.96;81.45
69335;SHT31;56477;52.742;15.242;2023-06-10T03:55:28;17.02;81.16
69335;SHT31;56477;52.742;15.242;2023-06-10T03:57:54;17.00;81.10
69335;SHT31;56477;52.742;15.242;2023-06-10T04:00:20;17.05;80.89
69335;SHT31;56477;52.742;15.242;2023-06-10T04:02:47;17.03;80.50
69335;SHT31;56477;52.742;15.242;2023-06-10T04:05:19;17.02;80.76
69335;SHT31;56477;52.742;15.242;2023-06-10T04:07:48;17.02;80.52
69335;SHT31;56477;52.742;15.242;2023-06-10T04:10:15;17.09;80.42
69335;SHT31;56477;52.742;15.242;2023-06-10T04:12:41;17.15;79.93
69335;SHT31;56477;52.742;15.242;2023-06-10T04:15:08;17.10;80.13
69335;SHT31;56477;52.742;15.242;2023-06-10T04:17:34;17.16;79.96
69335;SHT31;56477;52.742;15.242;2023-06-10T04:20:00;17.24;79.63
69335;SHT31;56477;52.742;15.242;2023-06-10T04:22:27;17.20;79.50
69335;SHT31;56477;52.742;15.242;2023-06-10T04:24:52;17.26;79.44
69335;SHT31;56477;52.742;15.242;2023-06-10T04:27:19;17.29;79.08
69335;SHT31;56477;52.742;15.242;2023-06-10T04:29:44;17.41;78.84
69335;SHT31;56477;52.742;15.242;2023-06-10T04:32:11;17.48;78.84
69335;SHT31;56477;52.742;15.242;2023-06-10T04:34:37;17.54;78.63
69335;SHT31;56477;52.742;15.242;2023-06-10T04:37:06;17.58;78.33
69335;SHT31;56477;52.742;15.242;2023-06-10T04:39:32;17.74;77.90
69335;SHT31;56477;52.742;15.242;2023-06-10T04:41:58;17.79;77.58
69335;SHT31;56477;52.742;15.242;2023-06-10T04:44:25;17.82;77.54
69335;SHT31;56477;52.742;15.242;2023-06-10T04:46:51;17.92;77.45
69335;SHT31;56477;52.742;15.242;2023-06-10T04:49:16;18.02;77.46
69335;SHT31;56477;52.742;15.242;2023-06-10T04:51:43;18.06;77.61
69335;SHT31;56477;52.742;15.242;2023-06-10T04:54:08;18.13;77.99
69335;SHT31;56477;52.742;15.242;2023-06-10T04:56:35;18.24;77.19
69335;SHT31;56477;52.742;15.242;2023-06-10T04:59:00;18.30;76.65
69335;SHT31;56477;52.742;15.242;2023-06-10T05:01:26;18.40;75.82
69335;SHT31;56477;52.742;15.242;2023-06-10T05:03:53;18.55;75.64
69335;SHT31;56477;52.742;15.242;2023-06-10T05:06:19;18.57;75.46
69335;SHT31;56477;52.742;15.242;2023-06-10T05:08:45;18.71;75.06
69335;SHT31;56477;52.742;15.242;2023-06-10T05:11:11;18.78;74.58
69335;SHT31;56477;52.742;15.242;2023-06-10T05:13:37;18.83;74.25
69335;SHT31;56477;52.742;15.242;2023-06-10T05:16:03;18.85;73.72
69335;SHT31;56477;52.742;15.242;2023-06-10T05:18:29;18.87;73.72
69335;SHT31;56477;52.742;15.242;2023-06-10T05:20:55;18.98;72.90
69335;SHT31;56477;52.742;15.242;2023-06-10T05:23:21;19.04;72.95
69335;SHT31;56477;52.742;15.242;2023-06-10T05:25:47;19.04;71.92
69335;SHT31;56477;52.742;15.242;2023-06-10T05:28:13;19.15;72.30
69335;SHT31;56477;52.742;15.242;2023-06-10T05:30:39;19.21;71.99
69335;SHT31;56477;52.742;15.242;2023-06-10T05:33:05;19.29;72.14
69335;SHT31;56477;52.742;15.242;2023-06-10T05:35:31;19.24;71.42
69335;SHT31;56477;52.742;15.242;2023-06-10T05:37:57;19.25;71.36
69335;SHT31;56477;52.742;15.242;2023-06-10T05:40:23;19.34;70.69
69335;SHT31;56477;52.742;15.242;2023-06-10T05:42:49;19.49;70.90
69335;SHT31;56477;52.742;15.242;2023-06-10T05:45:15;19.69;70.62
69335;SHT31;56477;52.742;15.242;2023-06-10T05:47:41;19.73;69.45
69335;SHT31;56477;52.742;15.242;2023-06-10T05:50:08;19.80;69.21
69335;SHT31;56477;52.742;15.242;2023-06-10T05:52:35;19.83;69.21
69335;SHT31;56477;52.742;15.242;2023-06-10T05:55:03;19.90;68.77
69335;SHT31;56477;52.742;15.242;2023-06-10T05:57:29;20.04;69.43
69335;SHT31;56477;52.742;15.242;2023-06-10T05:59:55;20.21;68.39
69335;SHT31;56477;52.742;15.242;2023-06-10T06:02:21;20.31;68.28
69335;SHT31;56477;52.742;15.242;2023-06-10T06:04:47;20.47;68.32
69335;SHT31;56477;52.742;15.242;2023-06-10T06:07:13;20.32;67.13
69335;SHT31;56477;52.742;15.242;2023-06-10T06:09:39;20.47;67.10
69335;SHT31;56477;52.742;15.242;2023-06-10T06:12:05;20.44;66.42
69335;SHT31;56477;52.742;15.242;2023-06-10T06:14:37;20.56;67.37
69335;SHT31;56477;52.742;15.242;2023-06-10T06:17:03;20.64;66.03
69335;SHT31;56477;52.742;15.242;2023-06-10T06:19:29;20.71;65.45
69335;SHT31;56477;52.742;15.242;2023-06-10T06:21:55;20.82;65.50
69335;SHT31;56477;52.742;15.242;2023-06-10T06:24:21;20.78;65.26
69335;SHT31;56477;52.742;15.242;2023-06-10T06:26:47;20.90;64.83
69335;SHT31;56477;52.742;15.242;2023-06-10T06:29:13;20.53;65.00
69335;SHT31;56477;52.742;15.242;2023-06-10T06:31:39;20.72;65.82
69335;SHT31;56477;52.742;15.242;2023-06-10T06:34:05;20.82;65.07
69335;SHT31;56477;52.742;15.242;2023-06-10T06:36:31;20.95;65.69
69335;SHT31;56477;52.742;15.242;2023-06-10T06:38:57;20.59;65.46
69335;SHT31;56477;52.742;15.242;2023-06-10T06:41:26;20.88;65.51
69335;SHT31;56477;52.742;15.242;2023-06-10T06:43:54;21.02;65.57
69335;SHT31;56477;52.742;15.242;2023-06-10T06:46:20;20.90;64.82
69335;SHT31;56477;52.742;15.242;2023-06-10T06:48:47;21.07;65.52
69335;SHT31;56477;52.742;15.242;2023-06-10T06:51:13;21.26;64.61
69335;SHT31;56477;52.742;15.242;2023-06-10T06:53:39;21.09;65.31
69335;SHT31;56477;52.742;15.242;2023-06-10T06:56:10;21.16;65.80
69335;SHT31;56477;52.742;15.242;2023-06-10T06:58:37;21.07;65.46
69335;SHT31;56477;52.742;15.242;2023-06-10T07:01:03;21.16;65.49
69335;SHT31;56477;52.742;15.242;2023-06-10T07:03:31;21.34;66.11
69335;SHT31;56477;52.742;15.242;2023-06-10T07:05:57;21.10;65.57
69335;SHT31;56477;52.742;15.242;2023-06-10T07:08:23;21.31;65.09
69335;SHT31;56477;52.742;15.242;2023-06-10T07:10:49;21.38;64.63
69335;SHT31;56477;52.742;15.242;2023-06-10T07:13:15;21.73;64.15
69335;SHT31;56477;52.742;15.242;2023-06-10T07:15:41;21.31;64.71
69335;SHT31;56477;52.742;15.242;2023-06-10T07:18:07;21.40;64.92
69335;SHT31;56477;52.742;15.242;2023-06-10T07:20:33;21.67;64.80
69335;SHT31;56477;52.742;15.242;2023-06-10T07:22:59;22.01;64.45
69335;SHT31;56477;52.742;15.242;2023-06-10T07:25:25;22.64;62.57
69335;SHT31;56477;52.742;15.242;2023-06-10T07:27:51;23.22;61.65
69335;SHT31;56477;52.742;15.242;2023-06-10T07:30:17;23.46;60.92
69335;SHT31;56477;52.742;15.242;2023-06-10T07:32:43;23.51;60.69
69335;SHT31;56477;52.742;15.242;2023-06-10T07:35:12;24.16;59.90
69335;SHT31;56477;52.742;15.242;2023-06-10T07:37:38;24.89;57.73
69335;SHT31;56477;52.742;15.242;2023-06-10T07:40:04;26.11;55.28
69335;SHT31;56477;52.742;15.242;2023-06-10T07:42:35;26.39;54.44
69335;SHT31;56477;52.742;15.242;2023-06-10T07:45:02;26.80;52.92
69335;SHT31;56477;52.742;15.242;2023-06-10T07:47:29;26.53;52.78
69335;SHT31;56477;52.742;15.242;2023-06-10T07:49:55;26.77;52.22
69335;SHT31;56477;52.742;15.242;2023-06-10T07:52:21;26.23;52.51
69335;SHT31;56477;52.742;15.242;2023-06-10T07:54:47;25.95;50.82
69335;SHT31;56477;52.742;15.242;2023-06-10T07:57:15;26.70;51.51
69335;SHT31;56477;52.742;15.242;2023-06-10T07:59:41;27.02;50.85
69335;SHT31;56477;52.742;15.242;2023-06-10T08:02:07;26.05;52.00
69335;SHT31;56477;52.742;15.242;2023-06-10T08:04:33;27.22;50.54
69335;SHT31;56477;52.742;15.242;2023-06-10T08:07:01;26.03;52.43
69335;SHT31;56477;52.742;15.242;2023-06-10T08:09:28;25.60;53.41
69335;SHT31;56477;52.742;15.242;2023-06-10T08:11:54;25.71;53.66
69335;SHT31;56477;52.742;15.242;2023-06-10T08:14:21;25.50;54.69
69335;SHT31;56477;52.742;15.242;2023-06-10T08:16:47;25.95;53.50
69335;SHT31;56477;52.742;15.242;2023-06-10T08:19:13;25.81;53.36
69335;SHT31;56477;52.742;15.242;2023-06-10T08:21:39;25.60;53.66
69335;SHT31;56477;52.742;15.242;2023-06-10T08:24:06;26.09;52.63
69335;SHT31;56477;52.742;15.242;2023-06-10T08:26:32;25.44;54.11
69335;SHT31;56477;52.742;15.242;2023-06-10T08:28:58;24.92;55.59
69335;SHT31;56477;52.742;15.242;2023-06-10T08:31:24;25.51;55.24
69335;SHT31;56477;52.742;15.242;2023-06-10T08:33:50;25.09;55.59
69335;SHT31;56477;52.742;15.242;2023-06-10T08:36:16;25.41;55.97
69335;SHT31;56477;52.742;15.242;2023-06-10T08:38:42;25.13;55.36
69335;SHT31;56477;52.742;15.242;2023-06-10T08:41:09;25.06;55.42
69335;SHT31;56477;52.742;15.242;2023-06-10T08:43:43;24.83;55.09
69335;SHT31;56477;52.742;15.242;2023-06-10T08:46:10;24.69;54.92
69335;SHT31;56477;52.742;15.242;2023-06-10T08:48:43;24.72;55.05
69335;SHT31;56477;52.742;15.242;2023-06-10T08:51:11;24.59;55.52
69335;SHT31;56477;52.742;15.242;2023-06-10T08:53:48;23.46;58.99
69335;SHT31;56477;52.742;15.242;2023-06-10T08:56:16;24.62;57.23
69335;SHT31;56477;52.742;15.242;2023-06-10T08:58:43;24.51;58.06
69335;SHT31;56477;52.742;15.242;2023-06-10T09:01:10;24.59;57.76
69335;SHT31;56477;52.742;15.242;2023-06-10T09:03:37;24.61;57.56
69335;SHT31;56477;52.742;15.242;2023-06-10T09:06:04;24.69;57.80
69335;SHT31;56477;52.742;15.242;2023-06-10T09:08:31;24.64;56.27
69335;SHT31;56477;52.742;15.242;2023-06-10T09:10:58;24.88;56.49
69335;SHT31;56477;52.742;15.242;2023-06-10T09:13:24;25.57;55.78
69335;SHT31;56477;52.742;15.242;2023-06-10T09:15:51;24.96;55.62
69335;SHT31;56477;52.742;15.242;2023-06-10T09:18:17;24.79;55.98
69335;SHT31;56477;52.742;15.242;2023-06-10T09:20:43;24.73;55.84
69335;SHT31;56477;52.742;15.242;2023-06-10T09:23:09;25.28;54.19
69335;SHT31;56477;52.742;15.242;2023-06-10T09:25:37;25.99;51.77
69335;SHT31;56477;52.742;15.242;2023-06-10T09:28:04;26.39;49.90
69335;SHT31;56477;52.742;15.242;2023-06-10T09:30:34;27.10;46.84
69335;SHT31;56477;52.742;15.242;2023-06-10T09:33:02;27.31;45.03
69335;SHT31;56477;52.742;15.242;2023-06-10T09:35:30;26.84;45.75
69335;SHT31;56477;52.742;15.242;2023-06-10T09:38:00;26.71;47.09
69335;SHT31;56477;52.742;15.242;2023-06-10T09:40:26;27.62;46.18
69335;SHT31;56477;52.742;15.242;2023-06-10T09:43:00;27.50;46.40
69335;SHT31;56477;52.742;15.242;2023-06-10T09:45:30;27.98;44.72
69335;SHT31;56477;52.742;15.242;2023-06-10T09:48:00;27.59;45.17
69335;SHT31;56477;52.742;15.242;2023-06-10T09:50:26;27.34;46.35
69335;SHT31;56477;52.742;15.242;2023-06-10T09:52:52;27.85;46.01
69335;SHT31;56477;52.742;15.242;2023-06-10T09:55:19;28.56;44.74
69335;SHT31;56477;52.742;15.242;2023-06-10T09:57:49;29.09;43.89
69335;SHT31;56477;52.742;15.242;2023-06-10T10:00:15;29.09;43.43
69335;SHT31;56477;52.742;15.242;2023-06-10T10:02:51;28.86;44.14
69335;SHT31;56477;52.742;15.242;2023-06-10T10:05:21;29.03;44.22
69335;SHT31;56477;52.742;15.242;2023-06-10T10:07:48;29.17;43.78
69335;SHT31;56477;52.742;15.242;2023-06-10T10:10:15;28.83;44.29
69335;SHT31;56477;52.742;15.242;2023-06-10T10:12:42;29.02;43.06
69335;SHT31;56477;52.742;15.242;2023-06-10T10:15:11;29.17;43.65
69335;SHT31;56477;52.742;15.242;2023-06-10T10:17:43;29.33;43.96
69335;SHT31;56477;52.742;15.242;2023-06-10T10:20:13;29.31;44.06
69335;SHT31;56477;52.742;15.242;2023-06-10T10:22:43;29.49;42.66
69335;SHT31;56477;52.742;15.242;2023-06-10T10:25:13;28.78;42.59
69335;SHT31;56477;52.742;15.242;2023-06-10T10:27:44;28.44;44.34
69335;SHT31;56477;52.742;15.242;2023-06-10T10:30:11;29.29;43.13
69335;SHT31;56477;52.742;15.242;2023-06-10T10:32:58;28.82;41.98
69335;SHT31;56477;52.742;15.242;2023-06-10T10:35:27;28.96;42.25
69335;SHT31;56477;52.742;15.242;2023-06-10T10:37:54;28.65;42.46
69335;SHT31;56477;52.742;15.242;2023-06-10T10:40:21;28.68;42.13
69335;SHT31;56477;52.742;15.242;2023-06-10T10:42:51;29.61;41.65
69335;SHT31;56477;52.742;15.242;2023-06-10T10:45:18;29.61;40.18
69335;SHT31;56477;52.742;15.242;2023-06-10T10:47:46;28.89;40.10
69335;SHT31;56477;52.742;15.242;2023-06-10T10:50:18;28.48;41.27
69335;SHT31;56477;52.742;15.242;2023-06-10T10:52:54;27.98;43.02
69335;SHT31;56477;52.742;15.242;2023-06-10T10:55:25;28.01;41.87
69335;SHT31;56477;52.742;15.242;2023-06-10T10:57:55;27.86;41.09
69335;SHT31;56477;52.742;15.242;2023-06-10T11:00:35;28.56;39.40
69335;SHT31;56477;52.742;15.242;2023-06-10T11:03:06;29.06;37.24
69335;SHT31;56477;52.742;15.242;2023-06-10T11:05:46;28.25;35.87
69335;SHT31;56477;52.742;15.242;2023-06-10T11:11:21;29.38;34.87
69335;SHT31;56477;52.742;15.242;2023-06-10T11:14:06;29.29;32.73
69335;SHT31;56477;52.742;15.242;2023-06-10T11:16:41;29.24;33.47
69335;SHT31;56477;52.742;15.242;2023-06-10T11:19:08;28.80;35.07
69335;SHT31;56477;52.742;15.242;2023-06-10T11:21:58;29.77;34.93
69335;SHT31;56477;52.742;15.242;2023-06-10T11:24:25;29.85;33.50
69335;SHT31;56477;52.742;15.242;2023-06-10T11:26:52;29.88;33.42
69335;SHT31;56477;52.742;15.242;2023-06-10T11:29:18;30.29;34.35
69335;SHT31;56477;52.742;15.242;2023-06-10T11:31:49;29.98;34.41
69335;SHT31;56477;52.742;15.242;2023-06-10T11:34:21;29.95;34.51
69335;SHT31;56477;52.742;15.242;2023-06-10T11:36:49;30.11;35.00
69335;SHT31;56477;52.742;15.242;2023-06-10T11:39:15;30.22;34.86
69335;SHT31;56477;52.742;15.242;2023-06-10T11:41:41;29.24;36.57
69335;SHT31;56477;52.742;15.242;2023-06-10T11:44:09;29.46;36.45
69335;SHT31;56477;52.742;15.242;2023-06-10T11:46:35;28.51;37.41
69335;SHT31;56477;52.742;15.242;2023-06-10T11:49:02;28.95;37.74
69335;SHT31;56477;52.742;15.242;2023-06-10T11:51:31;29.44;36.69
69335;SHT31;56477;52.742;15.242;2023-06-10T11:53:57;29.22;35.22
69335;SHT31;56477;52.742;15.242;2023-06-10T11:56:28;29.53;35.50
69335;SHT31;56477;52.742;15.242;2023-06-10T11:59:05;29.37;34.03
69335;SHT31;56477;52.742;15.242;2023-06-10T12:01:42;29.31;34.68
69335;SHT31;56477;52.742;15.242;2023-06-10T12:04:13;29.57;34.90
69335;SHT31;56477;52.742;15.242;2023-06-10T12:09:15;29.88;35.35
69335;SHT31;56477;52.742;15.242;2023-06-10T12:11:43;30.20;33.80
69335;SHT31;56477;52.742;15.242;2023-06-10T12:14:09;29.91;32.93
69335;SHT31;56477;52.742;15.242;2023-06-10T12:16:35;29.91;32.25
69335;SHT31;56477;52.742;15.242;2023-06-10T12:19:03;30.23;32.31
69335;SHT31;56477;52.742;15.242;2023-06-10T12:21:29;30.19;32.97
69335;SHT31;56477;52.742;15.242;2023-06-10T12:24:06;30.33;33.01
69335;SHT31;56477;52.742;15.242;2023-06-10T12:34:37;29.82;33.11
69335;SHT31;56477;52.742;15.242;2023-06-10T12:37:11;30.08;32.29
69335;SHT31;56477;52.742;15.242;2023-06-10T12:39:41;29.97;31.85
69335;SHT31;56477;52.742;15.242;2023-06-10T12:42:12;29.55;31.79
69335;SHT31;56477;52.742;15.242;2023-06-10T12:44:41;30.29;32.32
69335;SHT31;56477;52.742;15.242;2023-06-10T12:47:08;30.30;33.55
69335;SHT31;56477;52.742;15.242;2023-06-10T12:49:36;30.12;34.26
69335;SHT31;56477;52.742;15.242;2023-06-10T12:52:04;30.15;35.38
69335;SHT31;56477;52.742;15.242;2023-06-10T12:54:30;30.12;35.53
69335;SHT31;56477;52.742;15.242;2023-06-10T12:56:56;30.70;35.92
69335;SHT31;56477;52.742;15.242;2023-06-10T12:59:22;30.09;36.33
69335;SHT31;56477;52.742;15.242;2023-06-10T13:01:51;29.72;36.45
69335;SHT31;56477;52.742;15.242;2023-06-10T13:04:17;29.85;36.50
69335;SHT31;56477;52.742;15.242;2023-06-10T13:06:44;30.01;37.14
69335;SHT31;56477;52.742;15.242;2023-06-10T13:09:10;30.28;36.51
69335;SHT31;56477;52.742;15.242;2023-06-10T13:11:36;29.24;37.91
69335;SHT31;56477;52.742;15.242;2023-06-10T13:14:03;29.71;37.72
69335;SHT31;56477;52.742;15.242;2023-06-10T13:16:33;29.77;37.11
69335;SHT31;56477;52.742;15.242;2023-06-10T13:18:59;29.72;36.90
69335;SHT31;56477;52.742;15.242;2023-06-10T13:21:26;29.61;36.50
69335;SHT31;56477;52.742;15.242;2023-06-10T13:23:52;29.75;36.41
69335;SHT31;56477;52.742;15.242;2023-06-10T13:26:18;29.84;35.27
69335;SHT31;56477;52.742;15.242;2023-06-10T13:28:44;29.55;33.97
69335;SHT31;56477;52.742;15.242;2023-06-10T13:31:10;28.93;36.09
69335;SHT31;56477;52.742;15.242;2023-06-10T13:33:37;28.76;36.89
69335;SHT31;56477;52.742;15.242;2023-06-10T13:36:03;28.74;37.26
69335;SHT31;56477;52.742;15.242;2023-06-10T13:38:30;28.85;36.97
69335;SHT31;56477;52.742;15.242;2023-06-10T13:40:56;28.40;37.50
69335;SHT31;56477;52.742;15.242;2023-06-10T13:43:23;28.34;37.64
69335;SHT31;56477;52.742;15.242;2023-06-10T13:45:49;28.89;37.33
69335;SHT31;56477;52.742;15.242;2023-06-10T13:48:15;29.29;36.40
69335;SHT31;56477;52.742;15.242;2023-06-10T13:50:41;29.13;36.72
69335;SHT31;56477;52.742;15.242;2023-06-10T13:53:11;29.31;36.11
69335;SHT31;56477;52.742;15.242;2023-06-10T13:55:37;28.62;36.74
69335;SHT31;56477;52.742;15.242;2023-06-10T13:58:03;28.51;36.61
69335;SHT31;56477;52.742;15.242;2023-06-10T14:00:29;28.86;36.98
69335;SHT31;56477;52.742;15.242;2023-06-10T14:02:55;28.37;36.44
69335;SHT31;56477;52.742;15.242;2023-06-10T14:05:22;28.55;36.74
69335;SHT31;56477;52.742;15.242;2023-06-10T14:07:48;28.86;36.36
69335;SHT31;56477;52.742;15.242;2023-06-10T14:10:14;28.82;35.57
69335;SHT31;56477;52.742;15.242;2023-06-10T14:12:40;28.78;35.76
69335;SHT31;56477;52.742;15.242;2023-06-10T14:15:06;28.66;36.35
69335;SHT31;56477;52.742;15.242;2023-06-10T14:17:32;28.75;35.81
69335;SHT31;56477;52.742;15.242;2023-06-10T14:19:58;28.64;36.51
69335;SHT31;56477;52.742;15.242;2023-06-10T14:22:24;28.72;36.77
69335;SHT31;56477;52.742;15.242;2023-06-10T14:24:50;28.86;36.92
69335;SHT31;56477;52.742;15.242;2023-06-10T14:27:16;28.74;36.87
69335;SHT31;56477;52.742;15.242;2023-06-10T14:29:42;28.89;37.23
69335;SHT31;56477;52.742;15.242;2023-06-10T14:32:08;28.95;37.20
69335;SHT31;56477;52.742;15.242;2023-06-10T14:34:34;28.89;36.87
69335;SHT31;56477;52.742;15.242;2023-06-10T14:37:00;28.48;37.18
69335;SHT31;56477;52.742;15.242;2023-06-10T14:39:29;28.96;37.88
69335;SHT31;56477;52.742;15.242;2023-06-10T14:41:54;28.45;37.32
69335;SHT31;56477;52.742;15.242;2023-06-10T14:44:21;28.29;37.68
69335;SHT31;56477;52.742;15.242;2023-06-10T14:46:46;28.62;38.22
69335;SHT31;56477;52.742;15.242;2023-06-10T14:49:13;28.61;38.32
69335;SHT31;56477;52.742;15.242;2023-06-10T14:51:39;28.48;37.63
69335;SHT31;56477;52.742;15.242;2023-06-10T14:54:05;28.07;37.72
69335;SHT31;56477;52.742;15.242;2023-06-10T14:56:31;28.29;37.63
69335;SHT31;56477;52.742;15.242;2023-06-10T14:58:57;28.33;37.07
69335;SHT31;56477;52.742;15.242;2023-06-10T15:01:23;28.40;36.95
69335;SHT31;56477;52.742;15.242;2023-06-10T15:03:49;28.54;37.38
69335;SHT31;56477;52.742;15.242;2023-06-10T15:06:15;28.48;37.27
69335;SHT31;56477;52.742;15.242;2023-06-10T15:08:46;28.31;36.65
69335;SHT31;56477;52.742;15.242;2023-06-10T15:11:14;28.41;37.46
69335;SHT31;56477;52.742;15.242;2023-06-10T15:13:41;28.40;37.22
69335;SHT31;56477;52.742;15.242;2023-06-10T15:16:07;28.22;37.48
69335;SHT31;56477;52.742;15.242;2023-06-10T15:18:33;28.17;37.55
69335;SHT31;56477;52.742;15.242;2023-06-10T15:20:59;28.11;37.45
69335;SHT31;56477;52.742;15.242;2023-06-10T15:23:25;27.80;38.04
69335;SHT31;56477;52.742;15.242;2023-06-10T15:25:51;28.10;38.72
69335;SHT31;56477;52.742;15.242;2023-06-10T15:28:17;28.28;37.61
69335;SHT31;56477;52.742;15.242;2023-06-10T15:30:43;28.45;37.51